createdAt,value
2018-06-28T00:02:25.820Z,5.30
2018-06-28T00:04:54.119Z,4.60
2018-06-28T00:07:22.313Z,5.53
2018-06-28T00:09:50.506Z,5.03
2018-06-28T00:12:18.720Z,5.10
2018-06-28T00:14:46.925Z,5.00
2018-06-28T00:17:15.141Z,4.53
2018-06-28T00:19:43.344Z,4.67
2018-06-28T00:22:11.547Z,4.57
2018-06-28T00:24:39.733Z,5.17
2018-06-28T00:27:08.965Z,4.87
2018-06-28T00:29:37.213Z,4.60
2018-06-28T00:32:05.437Z,4.03
2018-06-28T00:34:33.722Z,4.77
2018-06-28T00:37:01.930Z,4.80
2018-06-28T00:39:30.140Z,4.33
2018-06-28T00:41:58.352Z,4.67
2018-06-28T00:44:26.576Z,4.53
2018-06-28T00:46:54.786Z,4.33
2018-06-28T00:49:22.976Z,4.90
2018-06-28T00:51:51.191Z,4.70
2018-06-28T00:54:19.413Z,4.80
2018-06-28T00:56:47.624Z,4.83
2018-06-28T00:59:15.831Z,5.17
2018-06-28T01:01:44.061Z,5.53
2018-06-28T01:04:12.281Z,5.33
2018-06-28T01:06:40.513Z,4.83
2018-06-28T01:09:10.308Z,4.93
2018-06-28T01:11:38.889Z,4.73
2018-06-28T01:14:07.119Z,5.57
2018-06-28T01:16:35.609Z,5.60
2018-06-28T01:19:03.882Z,5.47
2018-06-28T01:21:32.036Z,5.40
2018-06-28T01:24:00.235Z,5.27
2018-06-28T01:26:28.461Z,5.53
2018-06-28T01:28:56.646Z,5.40
2018-06-28T01:31:24.901Z,5.37
2018-06-28T01:33:53.123Z,5.43
2018-06-28T01:36:21.317Z,5.67
2018-06-28T01:38:49.541Z,5.50
2018-06-28T01:41:17.785Z,4.97
2018-06-28T01:43:46.972Z,5.47
2018-06-28T01:46:15.961Z,5.30
2018-06-28T01:48:44.357Z,4.90
2018-06-28T01:51:12.579Z,5.23
2018-06-28T01:53:40.752Z,5.30
2018-06-28T01:56:08.714Z,5.63
2018-06-28T01:58:36.912Z,5.73
2018-06-28T02:01:05.176Z,5.40
2018-06-28T02:03:33.417Z,4.83
2018-06-28T02:06:01.596Z,5.73
2018-06-28T02:08:29.804Z,5.13
2018-06-28T02:10:58.009Z,5.63
2018-06-28T02:13:26.219Z,5.33
2018-06-28T02:15:54.428Z,6.00
2018-06-28T02:18:22.633Z,7.13
2018-06-28T02:20:50.820Z,7.07
2018-06-28T02:23:19.818Z,6.37
2018-06-28T02:25:47.747Z,6.33
2018-06-28T02:28:15.948Z,6.37
2018-06-28T02:30:44.172Z,5.93
2018-06-28T02:33:12.379Z,6.43
2018-06-28T02:35:41.157Z,6.43
2018-06-28T02:38:09.098Z,6.37
2018-06-28T02:40:37.341Z,7.00
2018-06-28T02:43:05.541Z,6.30
2018-06-28T02:45:33.720Z,6.10
2018-06-28T02:48:01.936Z,6.20
2018-06-28T02:50:30.161Z,6.57
2018-06-28T02:52:58.346Z,7.00
2018-06-28T02:55:26.560Z,6.83
2018-06-28T02:57:54.760Z,6.90
2018-06-28T03:00:22.961Z,6.63
2018-06-28T03:02:51.165Z,6.73
2018-06-28T03:05:19.361Z,6.83
2018-06-28T03:07:47.570Z,7.00
2018-06-28T03:10:16.352Z,6.17
2018-06-28T03:12:44.560Z,6.60
2018-06-28T03:15:12.744Z,7.20
2018-06-28T03:17:47.529Z,7.23
2018-06-28T03:20:15.713Z,6.60
2018-06-28T03:22:43.916Z,6.80
2018-06-28T03:25:12.128Z,6.40
2018-06-28T03:27:40.337Z,5.80
2018-06-28T03:30:09.020Z,6.90
2018-06-28T03:32:37.245Z,6.47
2018-06-28T03:35:05.449Z,6.83
2018-06-28T03:37:33.693Z,6.63
2018-06-28T03:40:01.865Z,6.70
2018-06-28T03:42:29.838Z,7.07
2018-06-28T03:44:58.032Z,6.77
2018-06-28T03:47:26.256Z,7.17
2018-06-28T03:49:54.460Z,6.97
2018-06-28T03:52:22.665Z,7.07
2018-06-28T03:54:50.860Z,7.23
2018-06-28T03:57:19.106Z,6.63
2018-06-28T03:59:47.035Z,6.93
2018-06-28T04:02:15.236Z,6.80
2018-06-28T04:04:43.488Z,7.27
2018-06-28T04:07:11.808Z,7.13
2018-06-28T04:09:40.014Z,7.90
2018-06-28T04:12:08.220Z,7.07
2018-06-28T04:14:36.416Z,7.37
2018-06-28T04:17:04.841Z,6.63
2018-06-28T04:19:33.072Z,6.73
2018-06-28T04:22:01.011Z,5.90
2018-06-28T04:24:29.250Z,6.57
2018-06-28T04:26:57.446Z,5.97
2018-06-28T04:29:25.661Z,7.10
2018-06-28T04:31:53.905Z,6.50
2018-06-28T04:34:22.105Z,6.77
2018-06-28T04:36:50.301Z,5.93
2018-06-28T04:39:18.513Z,6.57
2018-06-28T04:41:46.725Z,7.67
2018-06-28T04:44:14.700Z,6.40
2018-06-28T04:46:42.909Z,6.20
2018-06-28T04:49:11.249Z,6.63
2018-06-28T04:51:39.458Z,7.10
2018-06-28T04:54:07.691Z,7.20
2018-06-28T04:56:36.028Z,7.00
2018-06-28T04:59:04.245Z,7.77
2018-06-28T05:01:32.466Z,7.27
2018-06-28T05:04:00.661Z,7.60
2018-06-28T05:06:28.888Z,6.53
2018-06-28T05:08:57.112Z,7.10
2018-06-28T05:11:25.308Z,7.23
2018-06-28T05:13:53.577Z,7.83
2018-06-28T05:16:21.800Z,7.73
2018-06-28T05:18:49.988Z,6.17
2018-06-28T05:21:18.197Z,5.73
2018-06-28T05:23:46.408Z,6.30
2018-06-28T05:26:14.623Z,5.70
2018-06-28T05:28:42.838Z,5.20
2018-06-28T05:31:11.054Z,5.57
2018-06-28T05:33:39.270Z,4.97
2018-06-28T05:36:07.536Z,5.83
2018-06-28T05:38:35.759Z,5.87
2018-06-28T05:41:03.987Z,5.63
2018-06-28T05:43:32.192Z,6.53
2018-06-28T05:46:00.413Z,6.70
2018-06-28T05:48:28.612Z,6.10
2018-06-28T05:50:56.861Z,6.27
2018-06-28T05:53:25.245Z,6.33
2018-06-28T05:55:53.450Z,5.40
2018-06-28T05:58:21.664Z,5.20
2018-06-28T06:00:49.912Z,4.87
2018-06-28T06:03:18.100Z,5.83
2018-06-28T06:05:46.333Z,5.37
2018-06-28T06:08:14.540Z,4.70
2018-06-28T06:10:42.780Z,5.17
2018-06-28T06:13:11.045Z,5.20
2018-06-28T06:15:39.311Z,5.23
2018-06-28T06:18:07.705Z,5.10
2018-06-28T06:20:36.119Z,4.60
2018-06-28T06:23:04.316Z,4.67
2018-06-28T06:25:32.541Z,6.33
2018-06-28T06:28:01.127Z,4.87
2018-06-28T06:30:29.368Z,4.83
2018-06-28T06:32:57.557Z,4.80
2018-06-28T06:35:26.049Z,4.57
2018-06-28T06:37:54.281Z,4.77
2018-06-28T06:40:22.480Z,4.50
2018-06-28T06:42:50.693Z,4.57
2018-06-28T06:45:18.945Z,4.77
2018-06-28T06:47:47.248Z,4.70
2018-06-28T06:50:15.501Z,4.87
2018-06-28T06:52:43.734Z,4.37
2018-06-28T06:55:12.007Z,4.87
2018-06-28T06:57:40.217Z,4.70
2018-06-28T07:00:08.409Z,4.57
2018-06-28T07:02:36.690Z,4.67
2018-06-28T07:05:05.048Z,4.00
2018-06-28T07:07:33.333Z,4.67
2018-06-28T07:10:01.558Z,5.13
2018-06-28T07:12:29.837Z,4.30
2018-06-28T07:14:58.044Z,4.40
2018-06-28T07:17:26.244Z,4.40
2018-06-28T07:19:54.439Z,4.23
2018-06-28T07:22:22.678Z,4.43
2018-06-28T07:24:50.885Z,4.30
2018-06-28T07:27:19.077Z,3.90
2018-06-28T07:29:47.324Z,4.00
2018-06-28T07:32:15.544Z,4.20
2018-06-28T07:34:43.756Z,4.20
2018-06-28T07:37:11.993Z,3.93
2018-06-28T07:39:40.241Z,3.83
2018-06-28T07:42:08.462Z,4.30
2018-06-28T07:44:36.729Z,4.10
2018-06-28T07:47:04.941Z,3.80
2018-06-28T07:49:33.147Z,3.97
2018-06-28T07:52:01.344Z,3.83
2018-06-28T07:54:29.588Z,3.53
2018-06-28T07:56:57.824Z,4.23
2018-06-28T07:59:26.172Z,4.60
2018-06-28T08:01:54.380Z,3.67
2018-06-28T08:04:22.629Z,4.23
2018-06-28T08:06:50.860Z,3.73
2018-06-28T08:09:19.079Z,4.00
2018-06-28T08:11:47.428Z,4.17
2018-06-28T08:14:15.641Z,3.50
2018-06-28T08:16:43.860Z,3.70
2018-06-28T08:19:12.064Z,3.30
2018-06-28T08:21:40.269Z,4.10
2018-06-28T08:24:08.520Z,3.83
2018-06-28T08:26:36.752Z,3.80
2018-06-28T08:29:05.271Z,3.37
2018-06-28T08:31:33.487Z,3.77
2018-06-28T08:34:01.698Z,3.50
2018-06-28T08:36:30.074Z,3.70
2018-06-28T08:38:58.260Z,3.47
2018-06-28T08:41:26.468Z,3.83
2018-06-28T08:43:54.661Z,3.20
2018-06-28T08:46:22.880Z,4.00
2018-06-28T08:48:51.071Z,3.57
2018-06-28T08:51:19.285Z,3.40
2018-06-28T08:53:47.581Z,3.20
2018-06-28T08:56:15.817Z,3.97
2018-06-28T08:58:44.044Z,3.40
2018-06-28T09:01:12.356Z,3.47
2018-06-28T09:03:40.593Z,3.17
2018-06-28T09:06:08.825Z,3.73
2018-06-28T09:08:36.768Z,3.90
2018-06-28T09:11:04.995Z,3.20
2018-06-28T09:13:33.208Z,3.43
2018-06-28T09:16:01.414Z,3.70
2018-06-28T09:18:29.681Z,3.60
2018-06-28T09:20:57.868Z,3.60
2018-06-28T09:23:26.085Z,3.17
2018-06-28T09:25:54.320Z,3.37
2018-06-28T09:28:22.545Z,3.57
2018-06-28T09:30:50.757Z,3.30
2018-06-28T09:33:19.017Z,3.50
2018-06-28T09:35:47.307Z,3.27
2018-06-28T09:38:15.204Z,3.77
2018-06-28T09:40:43.616Z,3.37
2018-06-28T09:43:11.884Z,3.33
2018-06-28T09:45:40.086Z,3.57
2018-06-28T09:48:08.304Z,2.90
2018-06-28T09:50:36.505Z,3.50
2018-06-28T09:53:04.732Z,3.63
2018-06-28T09:55:32.958Z,3.17
2018-06-28T09:58:01.176Z,3.20
2018-06-28T10:00:34.909Z,3.20
2018-06-28T10:03:02.996Z,3.07
2018-06-28T10:05:31.204Z,3.40
2018-06-28T10:07:59.167Z,3.47
2018-06-28T10:10:27.363Z,3.63
2018-06-28T10:12:55.588Z,3.40
2018-06-28T10:15:24.653Z,3.57
2018-06-28T10:17:52.878Z,3.17
2018-06-28T10:20:21.137Z,3.33
2018-06-28T10:22:49.362Z,3.10
2018-06-28T10:25:17.570Z,3.30
2018-06-28T10:27:46.145Z,3.37
2018-06-28T10:30:14.365Z,3.23
2018-06-28T10:32:42.663Z,2.90
2018-06-28T10:35:10.812Z,3.13
2018-06-28T10:37:39.049Z,3.00
2018-06-28T10:40:07.276Z,2.83
2018-06-28T10:42:35.643Z,3.00
2018-06-28T10:45:03.959Z,2.80
2018-06-28T10:47:32.193Z,2.63
2018-06-28T10:50:00.388Z,2.80
2018-06-28T10:52:28.612Z,2.97
2018-06-28T10:54:56.847Z,2.70
2018-06-28T10:57:25.060Z,2.30
2018-06-28T10:59:53.271Z,2.37
2018-06-28T11:02:21.489Z,2.57
2018-06-28T11:04:49.850Z,2.50
2018-06-28T11:07:18.047Z,2.27
2018-06-28T11:09:46.248Z,2.47
2018-06-28T11:12:14.472Z,2.70
2018-06-28T11:14:42.675Z,2.60
2018-06-28T11:17:10.906Z,2.60
2018-06-28T11:19:39.092Z,3.20
2018-06-28T11:22:07.320Z,2.73
2018-06-28T11:24:35.521Z,2.77
2018-06-28T11:27:03.741Z,3.43
2018-06-28T11:29:32.084Z,3.20
2018-06-28T11:32:00.310Z,3.20
2018-06-28T11:34:28.509Z,3.40
2018-06-28T11:36:56.749Z,3.43
2018-06-28T11:39:24.996Z,3.80
2018-06-28T11:41:53.224Z,3.33
2018-06-28T11:44:21.425Z,3.63
2018-06-28T11:46:49.649Z,3.30
2018-06-28T11:49:17.860Z,3.60
2018-06-28T11:51:46.089Z,3.70
2018-06-28T11:54:14.293Z,3.27
2018-06-28T11:56:42.497Z,3.53
2018-06-28T11:59:10.726Z,3.50
2018-06-28T12:01:38.952Z,3.60
2018-06-28T12:04:07.192Z,3.47
2018-06-28T12:06:35.379Z,3.50
2018-06-28T12:09:04.708Z,3.90
2018-06-28T12:11:32.929Z,3.93
2018-06-28T12:14:01.172Z,3.63
2018-06-28T12:16:29.376Z,3.97
2018-06-28T12:18:57.555Z,3.77
2018-06-28T12:21:25.768Z,3.87
2018-06-28T12:23:53.993Z,4.10
2018-06-28T12:26:22.216Z,3.63
2018-06-28T12:28:50.420Z,3.47
2018-06-28T12:31:18.669Z,3.47
2018-06-28T12:33:46.849Z,3.93
2018-06-28T12:36:15.062Z,3.33
2018-06-28T12:38:43.324Z,3.17
2018-06-28T12:41:11.565Z,3.80
2018-06-28T12:43:39.519Z,3.70
2018-06-28T12:46:07.814Z,4.00
2018-06-28T12:48:35.980Z,4.00
2018-06-28T12:51:04.215Z,3.87
2018-06-28T12:53:32.392Z,3.80
2018-06-28T12:56:35.153Z,4.20
2018-06-28T12:59:07.768Z,4.10
2018-06-28T13:01:35.758Z,4.00
2018-06-28T13:04:03.736Z,3.70
2018-06-28T13:06:31.978Z,4.30
2018-06-28T13:09:00.713Z,4.47
2018-06-28T13:11:29.200Z,3.87
2018-06-28T13:13:57.422Z,3.77
2018-06-28T13:16:27.001Z,4.13
2018-06-28T13:18:55.252Z,4.10
2018-06-28T13:21:23.473Z,3.80
2018-06-28T13:23:51.776Z,4.10
2018-06-28T13:26:20.025Z,3.93
2018-06-28T13:28:48.296Z,3.93
2018-06-28T13:31:16.560Z,4.33
2018-06-28T13:33:44.515Z,3.77
2018-06-28T13:36:12.748Z,4.27
2018-06-28T13:38:40.976Z,4.53
2018-06-28T13:41:09.362Z,4.40
2018-06-28T13:43:37.509Z,4.23
2018-06-28T13:46:05.734Z,4.53
2018-06-28T13:48:33.936Z,4.90
2018-06-28T13:51:02.158Z,5.17
2018-06-28T13:53:30.372Z,4.50
2018-06-28T13:55:58.577Z,4.53
2018-06-28T13:58:26.876Z,4.20
2018-06-28T14:00:55.121Z,4.87
2018-06-28T14:03:23.363Z,4.73
2018-06-28T14:05:51.556Z,4.10
2018-06-28T14:08:21.007Z,4.07
2018-06-28T14:10:49.811Z,4.43
2018-06-28T14:13:18.020Z,4.17
2018-06-28T14:15:46.232Z,4.00
2018-06-28T14:18:14.460Z,4.40
2018-06-28T14:20:42.664Z,4.03
2018-06-28T14:23:11.377Z,4.30
2018-06-28T14:25:39.605Z,4.67
2018-06-28T14:28:07.872Z,3.97
2018-06-28T14:30:36.067Z,4.17
2018-06-28T14:33:04.256Z,4.40
2018-06-28T14:35:32.456Z,4.07
2018-06-28T14:38:00.448Z,4.40
2018-06-28T14:40:28.431Z,4.47
2018-06-28T14:42:56.416Z,4.50
2018-06-28T14:45:24.621Z,4.37
2018-06-28T14:47:52.812Z,3.90
2018-06-28T14:50:21.023Z,4.90
2018-06-28T14:52:49.269Z,4.73
2018-06-28T14:55:17.485Z,5.30
2018-06-28T14:57:45.711Z,5.47
2018-06-28T15:00:13.905Z,5.23
2018-06-28T15:02:42.149Z,5.77
2018-06-28T15:05:10.428Z,5.13
2018-06-28T15:07:38.709Z,5.90
2018-06-28T15:10:06.939Z,4.87
2018-06-28T15:12:35.188Z,5.17
2018-06-28T15:15:03.449Z,5.70
2018-06-28T15:17:31.673Z,5.07
2018-06-28T15:19:59.923Z,4.73
2018-06-28T15:22:28.157Z,5.03
2018-06-28T15:24:56.378Z,5.60
2018-06-28T15:27:24.953Z,5.90
2018-06-28T15:29:53.107Z,5.93
2018-06-28T15:32:21.284Z,5.70
2018-06-28T15:34:49.512Z,6.00
2018-06-28T15:37:17.775Z,5.20
2018-06-28T15:39:45.936Z,6.53
2018-06-28T15:42:14.200Z,7.40
2018-06-28T15:44:42.450Z,6.47
2018-06-28T15:47:10.672Z,7.30
2018-06-28T15:49:39.490Z,6.50
2018-06-28T15:52:07.724Z,6.00
2018-06-28T15:54:35.920Z,6.00
2018-06-28T15:57:04.184Z,6.50
2018-06-28T15:59:32.384Z,6.23
2018-06-28T16:02:00.597Z,6.47
2018-06-28T16:04:28.820Z,6.70
2018-06-28T16:06:57.044Z,6.30
2018-06-28T16:09:25.271Z,7.23
2018-06-28T16:11:54.320Z,7.30
2018-06-28T16:14:22.538Z,7.33
2018-06-28T16:16:50.744Z,6.83
2018-06-28T16:19:18.998Z,7.33
2018-06-28T16:21:48.444Z,7.73
2018-06-28T16:24:16.668Z,7.30
2018-06-28T16:26:44.887Z,8.13
2018-06-28T16:29:13.152Z,8.10
2018-06-28T16:31:41.385Z,9.03
2018-06-28T16:34:09.621Z,8.50
2018-06-28T16:36:37.949Z,9.23
2018-06-28T16:39:08.344Z,8.93
2018-06-28T16:41:36.711Z,9.40
2018-06-28T16:44:04.928Z,9.90
2018-06-28T16:46:33.249Z,8.93
2018-06-28T16:49:01.380Z,9.90
2018-06-28T16:51:29.564Z,9.23
2018-06-28T16:53:57.797Z,9.70
2018-06-28T16:56:26.055Z,9.57
2018-06-28T16:58:54.262Z,9.50
2018-06-28T17:01:22.512Z,8.73
2018-06-28T17:03:50.737Z,8.10
2018-06-28T17:06:18.944Z,8.80
2018-06-28T17:08:47.176Z,8.30
2018-06-28T17:11:15.498Z,8.60
2018-06-28T17:13:43.692Z,9.03
2018-06-28T17:16:11.920Z,8.13
2018-06-28T17:18:40.177Z,8.50
2018-06-28T17:21:08.465Z,8.50
2018-06-28T17:23:36.704Z,8.63
2018-06-28T17:26:05.097Z,8.43
2018-06-28T17:28:33.356Z,8.57
2018-06-28T17:31:01.575Z,9.17
2018-06-28T17:33:29.812Z,9.60
2018-06-28T17:35:58.023Z,9.30
2018-06-28T17:38:26.257Z,9.70
2018-06-28T17:40:54.470Z,10.37
2018-06-28T17:43:22.696Z,9.23
2018-06-28T17:45:50.933Z,6.67
2018-06-28T17:48:19.157Z,9.20
2018-06-28T17:50:47.392Z,9.07
2018-06-28T17:53:15.604Z,10.03
2018-06-28T17:55:43.799Z,9.30
2018-06-28T17:58:12.057Z,9.37
2018-06-28T18:00:40.256Z,8.40
2018-06-28T18:03:08.532Z,6.93
2018-06-28T18:05:37.389Z,7.30
2018-06-28T18:08:05.606Z,7.50
2018-06-28T18:10:33.872Z,8.17
2018-06-28T18:13:02.157Z,8.13
2018-06-28T18:15:30.364Z,9.20
2018-06-28T18:17:58.584Z,8.83
2018-06-28T18:20:26.784Z,9.43
2018-06-28T18:22:55.025Z,9.20
2018-06-28T18:25:23.219Z,9.00
2018-06-28T18:27:51.448Z,7.93
2018-06-28T18:30:19.705Z,8.67
2018-06-28T18:32:47.873Z,9.23
2018-06-28T18:35:16.161Z,9.13
2018-06-28T18:37:44.404Z,9.07
2018-06-28T18:40:12.628Z,9.10
2018-06-28T18:42:40.914Z,9.23
2018-06-28T18:45:09.159Z,10.30
2018-06-28T18:47:37.380Z,10.23
2018-06-28T18:50:05.785Z,9.93
2018-06-28T18:52:34.022Z,10.53
2018-06-28T18:55:02.379Z,10.20
2018-06-28T18:57:30.634Z,9.70
2018-06-28T18:59:58.890Z,9.73
2018-06-28T19:02:27.119Z,9.80
2018-06-28T19:04:55.318Z,9.93
2018-06-28T19:07:23.732Z,10.70
2018-06-28T19:09:57.293Z,10.20
2018-06-28T19:12:25.548Z,11.60
2018-06-28T19:14:59.036Z,11.10
2018-06-28T19:17:27.256Z,11.67
2018-06-28T19:19:55.484Z,12.17
2018-06-28T19:22:29.143Z,12.60
2018-06-28T19:24:57.343Z,12.43
2018-06-28T19:27:25.566Z,13.17
2018-06-28T19:29:59.181Z,13.47
2018-06-28T19:32:31.479Z,12.47
2018-06-28T19:35:00.510Z,11.37
2018-06-28T19:37:34.215Z,10.07
2018-06-28T19:40:07.681Z,10.30
2018-06-28T19:42:41.336Z,8.70
2018-06-28T19:45:09.583Z,8.63
2018-06-28T19:47:37.897Z,7.80
2018-06-28T19:50:11.428Z,7.90
2018-06-28T19:52:45.048Z,8.73
2018-06-28T19:55:13.248Z,7.57
2018-06-28T19:57:41.472Z,7.70
2018-06-28T20:00:13.367Z,8.70
2018-06-28T20:02:46.955Z,9.20
2018-06-28T20:05:15.136Z,8.60
2018-06-28T20:07:43.368Z,7.43
2018-06-28T20:10:11.604Z,7.20
2018-06-28T20:12:45.159Z,7.43
2018-06-28T20:15:18.921Z,7.17
2018-06-28T20:17:58.063Z,7.00
2018-06-28T20:20:27.040Z,7.07
2018-06-28T20:22:55.668Z,7.30
2018-06-28T20:25:23.915Z,6.60
2018-06-28T20:27:57.548Z,7.20
2018-06-28T20:30:31.088Z,6.80
2018-06-28T20:33:04.692Z,7.73
2018-06-28T20:35:33.032Z,6.73
2018-06-28T20:38:01.215Z,7.67
2018-06-28T20:40:29.425Z,7.23
2018-06-28T20:42:57.446Z,8.03
2018-06-28T20:45:25.679Z,7.50
2018-06-28T20:47:54.073Z,8.40
2018-06-28T20:50:22.408Z,8.53
2018-06-28T20:52:50.604Z,8.43
2018-06-28T20:55:18.852Z,9.10
2018-06-28T20:57:47.229Z,9.43
2018-06-28T21:00:15.436Z,8.63
2018-06-28T21:02:43.772Z,9.00
2018-06-28T21:05:11.836Z,8.57
2018-06-28T21:07:40.084Z,8.27
2018-06-28T21:10:08.313Z,7.70
2018-06-28T21:12:36.520Z,8.33
2018-06-28T21:15:04.868Z,8.60
2018-06-28T21:17:33.085Z,6.97
2018-06-28T21:20:01.516Z,7.40
2018-06-28T21:22:29.741Z,7.37
2018-06-28T21:24:57.973Z,8.30
2018-06-28T21:27:26.168Z,7.57
2018-06-28T21:29:54.394Z,8.10
2018-06-28T21:32:22.588Z,8.03
2018-06-28T21:34:50.951Z,8.43
2018-06-28T21:37:19.157Z,8.30
2018-06-28T21:39:47.464Z,8.10
2018-06-28T21:42:15.392Z,8.03
2018-06-28T21:44:43.684Z,7.60
2018-06-28T21:47:11.916Z,7.37
2018-06-28T21:49:40.186Z,8.27
2018-06-28T21:52:08.404Z,8.13
2018-06-28T21:54:36.624Z,7.43
2018-06-28T21:57:04.971Z,7.37
2018-06-28T21:59:33.148Z,6.80
2018-06-28T22:02:01.366Z,6.20
2018-06-28T22:04:29.554Z,5.90
2018-06-28T22:06:57.772Z,6.03
2018-06-28T22:09:26.008Z,5.37
2018-06-28T22:11:54.225Z,5.90
2018-06-28T22:14:22.495Z,6.33
2018-06-28T22:16:50.640Z,6.67
2018-06-28T22:19:18.899Z,5.73
2018-06-28T22:21:47.149Z,5.53
2018-06-28T22:24:15.369Z,5.97
2018-06-28T22:26:44.076Z,6.17
2018-06-28T22:29:12.340Z,6.07
2018-06-28T22:31:40.630Z,6.07
2018-06-28T22:34:08.667Z,6.47
2018-06-28T22:36:36.888Z,6.63
2018-06-28T22:39:07.856Z,6.20
2018-06-28T22:41:36.136Z,6.77
2018-06-28T22:44:04.560Z,6.87
2018-06-28T22:46:33.105Z,6.60
2018-06-28T22:49:01.764Z,6.87
2018-06-28T22:51:29.989Z,7.27
2018-06-28T22:53:58.213Z,7.57
2018-06-28T22:56:26.461Z,7.90
2018-06-28T22:58:54.821Z,7.37
2018-06-28T23:01:23.038Z,7.33
2018-06-28T23:06:25.872Z,6.93
2018-06-28T23:08:54.119Z,7.03
2018-06-28T23:11:22.134Z,7.87
2018-06-28T23:13:50.316Z,7.53
2018-06-28T23:16:18.535Z,8.00
2018-06-28T23:18:46.796Z,7.77
2018-06-28T23:21:14.740Z,7.37
2018-06-28T23:23:42.944Z,7.23
2018-06-28T23:26:11.168Z,7.33
2018-06-28T23:28:39.377Z,7.90
2018-06-28T23:31:07.595Z,8.20
2018-06-28T23:33:35.795Z,7.80
2018-06-28T23:36:04.480Z,7.60
2018-06-28T23:38:32.697Z,8.13
2018-06-28T23:41:00.887Z,8.30
2018-06-28T23:43:29.099Z,8.03
2018-06-28T23:45:57.306Z,8.40
2018-06-28T23:48:25.568Z,7.93
2018-06-28T23:50:54.192Z,7.90
2018-06-28T23:53:22.391Z,8.23
2018-06-28T23:55:50.609Z,7.80
2018-06-28T23:58:18.900Z,7.67
